Time;durP1;ratioP1;P1;durP2;ratioP2;P2;SDS_P1;SDS_P2;PMS_P1;PMS_P2;Temp;Humidity;BMP_temperature;BMP_pressure;BME280_temperature;BME280_humidity;BME280_pressure;Samples;Min_cycle;Max_cycle;Signal;HPM_P1;HPM_P2
2023/07/22 00:09:43;;;;;;;10.52;3.67;;;;;;;;;;4823670;29;20462;-89
2023/07/22 00:28:35;;;;;;;14.35;4.63;;;;;;;;;;4819032;29;20054;-88
2023/07/22 00:48:32;;;;;;;11.15;4.60;;;;;;;;;;4758341;30;20051;-88
2023/07/22 00:51:50;;;;;;;12.18;4.22;;;;;;;;;;4774968;30;20051;-87
2023/07/22 00:55:31;;;;;;;;;;;;;;;;;;;;;
2023/07/22 01:03:19;;;;;;;6.65;3.72;;;;;;;;;;4770460;30;20692;-90
2023/07/22 01:06:29;;;;;;;8.70;3.65;;;;;;;;;;4782276;29;20054;-88
2023/07/22 01:13:47;;;;;;;8.70;3.45;;;;;;;;;;4831459;29;20057;-88
2023/07/22 02:18:49;;;;;;;10.80;4.10;;;;;;;;;;4827133;29;20481;-88
2023/07/22 02:21:35;;;;;;;11.38;3.90;;;;;;;;;;4845458;29;20062;-80
2023/07/22 02:24:23;;;;;;;17.92;3.50;;;;;;;;;;4846116;29;20477;-86
2023/07/22 02:27:08;;;;;;;14.68;4.10;;;;;;;;;;4827805;29;20054;-86
2023/07/22 02:29:53;;;;;;;12.40;4.00;;;;;;;;;;4833915;29;21005;-86
2023/07/22 02:32:40;;;;;;;13.32;3.78;;;;;;;;;;4850327;29;20054;-86
2023/07/22 02:35:25;;;;;;;12.60;3.92;;;;;;;;;;4834040;29;20385;-86
2023/07/22 02:38:10;;;;;;;14.02;4.18;;;;;;;;;;4827127;29;20054;-86
2023/07/22 02:41:07;;;;;;;11.00;4.10;;;;;;;;;;4827045;29;20046;-86
2023/07/22 02:43:52;;;;;;;11.70;4.72;;;;;;;;;;4827293;29;20062;-87
2023/07/22 02:46:38;;;;;;;12.98;5.70;;;;;;;;;;4827363;29;20050;-87
2023/07/22 02:49:24;;;;;;;18.23;5.80;;;;;;;;;;4827328;29;20058;-86
2023/07/22 02:52:09;;;;;;;12.05;5.72;;;;;;;;;;4832167;29;20046;-86
2023/07/22 02:55:24;;;;;;;12.32;5.25;;;;;;;;;;4832073;29;20050;-87
2023/07/22 02:58:09;;;;;;;10.93;4.57;;;;;;;;;;4825847;29;20058;-86
2023/07/22 03:00:57;;;;;;;12.65;5.03;;;;;;;;;;4826725;29;20050;-84
2023/07/22 03:03:42;;;;;;;7.05;4.93;;;;;;;;;;4845047;29;20055;-83
2023/07/22 03:06:31;;;;;;;10.07;4.38;;;;;;;;;;4831851;29;20050;-85
2023/07/22 03:09:17;;;;;;;18.73;5.55;;;;;;;;;;4826812;29;20050;-86
2023/07/22 03:12:03;;;;;;;11.02;4.70;;;;;;;;;;4836214;29;20046;-85
2023/07/22 03:14:49;;;;;;;8.13;4.55;;;;;;;;;;4832951;29;20452;-85
2023/07/22 03:17:35;;;;;;;11.65;4.85;;;;;;;;;;4828517;29;20058;-85
2023/07/22 03:20:21;;;;;;;13.68;4.63;;;;;;;;;;4831625;29;20050;-84
2023/07/22 03:23:07;;;;;;;14.32;5.60;;;;;;;;;;4826939;29;20042;-85
2023/07/22 03:25:52;;;;;;;11.40;4.72;;;;;;;;;;4832483;29;20054;-85
2023/07/22 03:28:38;;;;;;;12.43;5.03;;;;;;;;;;4828040;29;20487;-85
2023/07/22 03:31:23;;;;;;;10.35;4.75;;;;;;;;;;4831694;29;20404;-84
2023/07/22 03:34:09;;;;;;;8.50;4.75;;;;;;;;;;4831502;29;20055;-84
2023/07/22 03:36:54;;;;;;;9.93;4.32;;;;;;;;;;4826661;29;20054;-84
2023/07/22 03:39:40;;;;;;;11.85;4.38;;;;;;;;;;4838280;29;20050;-81
2023/07/22 03:42:24;;;;;;;11.32;4.43;;;;;;;;;;4831339;29;20070;-84
2023/07/22 03:45:10;;;;;;;9.82;4.22;;;;;;;;;;4844366;29;20047;-83
2023/07/22 03:48:00;;;;;;;10.52;5.13;;;;;;;;;;4834201;29;20046;-84
2023/07/22 03:50:45;;;;;;;12.40;5.20;;;;;;;;;;4822608;29;20046;-83
2023/07/22 03:53:31;;;;;;;12.55;4.72;;;;;;;;;;4829964;29;20055;-84
2023/07/22 03:56:16;;;;;;;14.27;4.85;;;;;;;;;;4828720;29;20054;-84
2023/07/22 03:59:02;;;;;;;12.52;4.88;;;;;;;;;;4833878;29;20489;-84
2023/07/22 04:01:47;;;;;;;15.43;4.93;;;;;;;;;;4829043;29;20397;-83
2023/07/22 04:04:32;;;;;;;10.90;5.40;;;;;;;;;;4830150;29;20038;-83
2023/07/22 04:07:18;;;;;;;14.63;5.13;;;;;;;;;;4827512;29;20058;-84
2023/07/22 04:10:04;;;;;;;10.13;4.80;;;;;;;;;;4827594;29;20046;-83
2023/07/22 04:12:49;;;;;;;12.25;5.60;;;;;;;;;;4831100;29;20054;-84
2023/07/22 04:15:34;;;;;;;12.68;4.88;;;;;;;;;;4825464;29;20051;-84
2023/07/22 04:18:20;;;;;;;11.70;4.55;;;;;;;;;;4837505;29;20050;-83
2023/07/22 04:21:05;;;;;;;14.73;4.35;;;;;;;;;;4825885;29;20046;-84
2023/07/22 04:23:50;;;;;;;11.60;4.72;;;;;;;;;;4825889;29;20051;-83
2023/07/22 04:26:36;;;;;;;10.07;4.28;;;;;;;;;;4831533;29;20046;-84
2023/07/22 04:29:22;;;;;;;10.05;4.18;;;;;;;;;;4839940;29;20058;-84
2023/07/22 04:32:08;;;;;;;11.48;3.50;;;;;;;;;;4828403;29;20054;-85
2023/07/22 04:34:54;;;;;;;12.85;4.40;;;;;;;;;;4832212;29;20050;-84
2023/07/22 04:37:39;;;;;;;12.05;3.90;;;;;;;;;;4831318;29;20050;-84
2023/07/22 04:40:25;;;;;;;12.02;3.95;;;;;;;;;;4825802;29;20494;-84
2023/07/22 04:43:12;;;;;;;13.93;4.75;;;;;;;;;;4834054;29;20397;-84
2023/07/22 04:45:57;;;;;;;11.50;4.90;;;;;;;;;;4848305;29;20046;-82
2023/07/22 04:48:43;;;;;;;13.35;4.78;;;;;;;;;;4844488;29;20050;-85
2023/07/22 04:51:28;;;;;;;9.70;4.18;;;;;;;;;;4838665;29;20050;-85
2023/07/22 04:54:14;;;;;;;9.68;3.70;;;;;;;;;;4830431;29;20046;-84
2023/07/22 04:56:59;;;;;;;10.43;3.90;;;;;;;;;;4830726;29;20050;-84
2023/07/22 04:59:46;;;;;;;10.75;3.88;;;;;;;;;;4825778;29;20054;-84
2023/07/22 05:02:32;;;;;;;10.00;4.00;;;;;;;;;;4825104;29;20038;-84
2023/07/22 05:05:17;;;;;;;9.57;4.35;;;;;;;;;;4826362;29;20052;-86
2023/07/22 05:08:03;;;;;;;15.43;4.55;;;;;;;;;;4829915;29;20393;-84
2023/07/22 05:10:48;;;;;;;22.42;5.03;;;;;;;;;;4826559;29;20054;-83
2023/07/22 05:13:34;;;;;;;13.80;4.93;;;;;;;;;;4825455;29;20054;-83
2023/07/22 05:16:21;;;;;;;15.68;4.78;;;;;;;;;;4825444;29;20054;-83
2023/07/22 05:19:08;;;;;;;10.93;4.25;;;;;;;;;;4829790;29;20401;-82
2023/07/22 05:21:53;;;;;;;16.17;4.97;;;;;;;;;;4845073;29;20046;-82
2023/07/22 05:24:38;;;;;;;13.23;4.57;;;;;;;;;;4845449;29;20049;-83
2023/07/22 05:27:24;;;;;;;15.63;4.68;;;;;;;;;;4862090;29;20042;-83
2023/07/22 05:30:10;;;;;;;12.13;3.95;;;;;;;;;;4845680;29;20050;-84
2023/07/22 05:32:55;;;;;;;10.20;4.43;;;;;;;;;;4845656;29;20049;-84
2023/07/22 05:35:41;;;;;;;10.55;3.90;;;;;;;;;;4843100;29;20046;-83
2023/07/22 05:38:26;;;;;;;12.25;3.63;;;;;;;;;;4862890;29;20050;-83
2023/07/22 05:41:12;;;;;;;11.98;3.63;;;;;;;;;;4858182;29;20042;-84
2023/07/22 05:43:58;;;;;;;15.05;4.38;;;;;;;;;;4857792;29;20054;-83
2023/07/22 05:46:43;;;;;;;8.93;3.90;;;;;;;;;;4846953;29;20046;-83
2023/07/22 05:49:28;;;;;;;8.95;3.83;;;;;;;;;;4839274;29;20050;-83
2023/07/22 05:52:14;;;;;;;8.20;4.10;;;;;;;;;;4832943;29;20054;-83
2023/07/22 05:55:00;;;;;;;12.20;3.70;;;;;;;;;;4845392;29;20054;-83
2023/07/22 05:57:46;;;;;;;11.25;3.75;;;;;;;;;;4847312;29;20054;-83
2023/07/22 06:00:33;;;;;;;5.10;3.30;;;;;;;;;;4846190;29;20050;-84
2023/07/22 06:03:19;;;;;;;10.25;3.17;;;;;;;;;;4851467;29;20054;-84
2023/07/22 06:06:04;;;;;;;7.05;3.45;;;;;;;;;;4850125;29;20058;-83
2023/07/22 06:08:50;;;;;;;10.60;4.30;;;;;;;;;;4846476;29;20053;-83
2023/07/22 06:11:35;;;;;;;13.68;3.85;;;;;;;;;;4854027;29;20058;-83
2023/07/22 06:14:21;;;;;;;10.27;4.25;;;;;;;;;;4846754;29;20050;-85
2023/07/22 06:17:06;;;;;;;11.27;3.75;;;;;;;;;;4845852;29;20046;-84
2023/07/22 06:19:52;;;;;;;13.23;4.43;;;;;;;;;;4845924;29;20045;-83
2023/07/22 06:22:37;;;;;;;12.45;3.92;;;;;;;;;;4850862;29;20042;-82
2023/07/22 06:25:23;;;;;;;13.88;3.60;;;;;;;;;;4846511;29;20042;-84
2023/07/22 06:28:09;;;;;;;14.00;3.75;;;;;;;;;;4855705;29;20050;-85
2023/07/22 06:30:54;;;;;;;11.38;4.30;;;;;;;;;;4854584;29;20046;-84
2023/07/22 06:33:40;;;;;;;8.00;3.63;;;;;;;;;;4847896;29;20058;-84
2023/07/22 06:36:26;;;;;;;10.43;4.03;;;;;;;;;;4852407;29;20049;-84
2023/07/22 06:39:11;;;;;;;10.35;3.38;;;;;;;;;;4846595;29;20050;-84
2023/07/22 06:41:56;;;;;;;11.15;3.53;;;;;;;;;;4847176;29;20042;-84
2023/07/22 06:44:42;;;;;;;13.38;3.30;;;;;;;;;;4861594;29;20046;-83
2023/07/22 06:47:28;;;;;;;10.32;3.42;;;;;;;;;;4850201;29;20505;-84
2023/07/22 06:50:13;;;;;;;8.75;3.47;;;;;;;;;;4845812;29;20042;-82
2023/07/22 06:53:01;;;;;;;13.68;3.10;;;;;;;;;;4851165;29;20449;-82
2023/07/22 06:55:52;;;;;;;10.63;3.67;;;;;;;;;;4837260;29;20489;-82
2023/07/22 07:01:53;;;;;;;13.10;4.22;;;;;;;;;;4853537;29;20050;-85
2023/07/22 07:04:38;;;;;;;11.27;3.30;;;;;;;;;;4840091;29;20042;-85
2023/07/22 07:07:24;;;;;;;12.27;3.90;;;;;;;;;;4846302;29;20041;-78
2023/07/22 07:10:10;;;;;;;7.45;3.17;;;;;;;;;;4845220;29;20054;-77
2023/07/22 07:12:55;;;;;;;9.52;4.03;;;;;;;;;;4851151;29;20050;-77
2023/07/22 07:15:41;;;;;;;15.50;3.63;;;;;;;;;;4845420;29;20050;-80
2023/07/22 07:18:26;;;;;;;7.72;3.38;;;;;;;;;;4845137;29;20058;-82
2023/07/22 07:21:12;;;;;;;9.73;3.35;;;;;;;;;;4844925;29;20053;-77
2023/07/22 07:23:58;;;;;;;11.80;3.40;;;;;;;;;;4844883;29;20054;-78
2023/07/22 07:26:43;;;;;;;16.85;3.50;;;;;;;;;;4844969;29;20050;-78
2023/07/22 07:29:29;;;;;;;10.25;3.60;;;;;;;;;;4830796;29;20046;-78
2023/07/22 07:32:14;;;;;;;11.25;3.63;;;;;;;;;;4844491;29;20050;-79
2023/07/22 07:35:00;;;;;;;11.60;3.70;;;;;;;;;;4844709;29;20054;-80
2023/07/22 07:37:46;;;;;;;7.28;3.60;;;;;;;;;;4836819;29;20049;-78
2023/07/22 07:40:32;;;;;;;10.82;3.75;;;;;;;;;;4850476;29;20042;-80
2023/07/22 07:43:19;;;;;;;13.35;3.67;;;;;;;;;;4844539;29;20054;-77
2023/07/22 07:46:18;;;;;;;13.57;3.13;;;;;;;;;;4850371;29;20042;-76
2023/07/22 07:49:03;;;;;;;10.38;3.65;;;;;;;;;;4844277;29;20046;-77
2023/07/22 07:51:49;;;;;;;9.75;3.17;;;;;;;;;;4850302;29;20050;-80
2023/07/22 07:54:35;;;;;;;10.48;3.55;;;;;;;;;;4850138;29;20045;-78
2023/07/22 07:57:20;;;;;;;8.23;3.45;;;;;;;;;;4850226;29;20054;-79
2023/07/22 08:00:08;;;;;;;9.73;3.17;;;;;;;;;;4844064;29;20054;-77
2023/07/22 08:02:53;;;;;;;5.53;3.05;;;;;;;;;;4843580;29;20050;-79
2023/07/22 08:05:39;;;;;;;7.03;3.17;;;;;;;;;;4849958;29;20049;-79
2023/07/22 08:08:25;;;;;;;10.95;3.50;;;;;;;;;;4850111;29;20045;-78
2023/07/22 08:11:15;;;;;;;8.85;2.92;;;;;;;;;;4844249;29;20049;-78
2023/07/22 08:14:01;;;;;;;11.02;3.53;;;;;;;;;;4849941;29;20053;-79
2023/07/22 08:16:46;;;;;;;11.85;3.47;;;;;;;;;;4843593;29;20042;-78
2023/07/22 08:19:32;;;;;;;13.77;3.58;;;;;;;;;;4850024;29;20054;-77
2023/07/22 08:22:18;;;;;;;13.25;3.40;;;;;;;;;;4849899;29;20054;-77
2023/07/22 08:25:04;;;;;;;7.15;3.50;;;;;;;;;;4849876;29;20042;-80
2023/07/22 08:27:49;;;;;;;61.88;46.30;;;;;;;;;;4849703;29;20050;-77
2023/07/22 08:30:35;;;;;;;13.32;4.38;;;;;;;;;;4843808;29;20401;-77
2023/07/22 08:33:20;;;;;;;11.18;4.88;;;;;;;;;;4849843;29;20050;-77
2023/07/22 08:36:05;;;;;;;9.65;3.17;;;;;;;;;;4843503;29;20046;-78
2023/07/22 08:38:51;;;;;;;8.93;3.60;;;;;;;;;;4850086;29;20057;-79
2023/07/22 08:41:37;;;;;;;14.07;4.57;;;;;;;;;;4849264;29;20050;-78
2023/07/22 08:44:25;;;;;;;10.30;3.75;;;;;;;;;;4843506;29;20477;-77
2023/07/22 08:47:15;;;;;;;12.23;3.45;;;;;;;;;;4844408;29;20071;-79
2023/07/22 08:50:03;;;;;;;13.57;3.00;;;;;;;;;;4849578;29;20046;-78
2023/07/22 08:52:49;;;;;;;12.65;3.33;;;;;;;;;;4849412;29;20053;-78
2023/07/22 08:55:35;;;;;;;8.88;3.53;;;;;;;;;;4843177;29;20050;-78
2023/07/22 08:58:21;;;;;;;17.05;3.80;;;;;;;;;;4843427;29;20411;-78
2023/07/22 09:01:07;;;;;;;8.52;3.35;;;;;;;;;;4849439;29;20049;-80
2023/07/22 09:03:56;;;;;;;7.15;3.50;;;;;;;;;;4843113;29;20038;-79
2023/07/22 09:06:43;;;;;;;12.30;3.88;;;;;;;;;;4843125;29;20396;-78
2023/07/22 09:09:29;;;;;;;10.20;3.67;;;;;;;;;;4843045;29;20050;-79
2023/07/22 09:12:15;;;;;;;12.18;3.65;;;;;;;;;;4843285;29;20404;-78
2023/07/22 09:15:00;;;;;;;12.75;3.80;;;;;;;;;;4845295;29;20042;-78
2023/07/22 09:17:46;;;;;;;15.23;3.92;;;;;;;;;;4851819;29;20492;-78
2023/07/22 09:20:34;;;;;;;11.85;3.88;;;;;;;;;;4849176;29;20046;-79
2023/07/22 09:23:34;;;;;;;9.10;3.55;;;;;;;;;;4843183;29;20041;-77
2023/07/22 09:26:20;;;;;;;10.30;3.60;;;;;;;;;;4842843;29;20054;-79
2023/07/22 09:29:05;;;;;;;10.95;3.50;;;;;;;;;;4843030;29;20050;-79
2023/07/22 09:31:54;;;;;;;9.93;3.22;;;;;;;;;;4843480;29;20057;-80
2023/07/22 09:34:54;;;;;;;10.45;3.47;;;;;;;;;;4843241;29;20042;-79
2023/07/22 09:37:39;;;;;;;8.40;4.28;;;;;;;;;;4848859;29;20046;-80
2023/07/22 09:40:27;;;;;;;12.98;3.47;;;;;;;;;;4849251;29;20046;-79
2023/07/22 09:43:12;;;;;;;8.20;3.40;;;;;;;;;;4843174;29;20050;-79
2023/07/22 09:46:07;;;;;;;10.40;3.42;;;;;;;;;;4843395;29;20489;-80
2023/07/22 09:48:53;;;;;;;8.18;3.25;;;;;;;;;;4849172;29;20400;-80
2023/07/22 09:51:40;;;;;;;7.88;3.00;;;;;;;;;;4848916;29;20050;-80
2023/07/22 09:54:29;;;;;;;6.72;3.30;;;;;;;;;;4849659;29;20042;-81
2023/07/22 09:57:15;;;;;;;8.20;3.13;;;;;;;;;;4843166;29;20062;-80
2023/07/22 10:00:01;;;;;;;9.90;3.35;;;;;;;;;;4835414;29;20050;-79
2023/07/22 10:02:49;;;;;;;12.88;3.70;;;;;;;;;;4849324;29;20485;-79
2023/07/22 10:05:35;;;;;;;11.05;3.65;;;;;;;;;;4843222;29;20400;-79
2023/07/22 10:08:24;;;;;;;10.68;3.42;;;;;;;;;;4829141;29;20054;-80
2023/07/22 10:11:13;;;;;;;11.40;3.55;;;;;;;;;;4843464;29;20050;-79
2023/07/22 10:13:58;;;;;;;11.68;3.42;;;;;;;;;;4849458;29;20046;-81
2023/07/22 10:16:45;;;;;;;11.15;3.90;;;;;;;;;;4847970;29;20054;-79
2023/07/22 10:19:31;;;;;;;9.50;3.58;;;;;;;;;;4843264;29;20050;-80
2023/07/22 10:22:17;;;;;;;8.85;2.97;;;;;;;;;;4842598;29;20046;-79
2023/07/22 10:25:09;;;;;;;10.13;3.80;;;;;;;;;;4844125;29;20388;-80
2023/07/22 10:27:55;;;;;;;6.82;3.20;;;;;;;;;;4836101;29;20404;-81
2023/07/22 10:30:40;;;;;;;10.43;3.28;;;;;;;;;;4842855;29;20050;-80
2023/07/22 10:33:26;;;;;;;9.30;3.30;;;;;;;;;;4853965;29;20049;-79
2023/07/22 10:36:16;;;;;;;13.77;3.45;;;;;;;;;;4834170;29;20042;-82
2023/07/22 10:39:01;;;;;;;9.73;3.50;;;;;;;;;;4851919;29;20381;-79
2023/07/22 10:41:47;;;;;;;11.60;3.45;;;;;;;;;;4846139;29;20046;-80
2023/07/22 10:44:38;;;;;;;8.65;3.22;;;;;;;;;;4851689;29;20046;-83
2023/07/22 10:47:32;;;;;;;11.63;3.25;;;;;;;;;;4845755;29;20046;-81
2023/07/22 10:50:19;;;;;;;8.98;3.45;;;;;;;;;;4845964;29;20038;-82
2023/07/22 10:53:04;;;;;;;14.07;3.50;;;;;;;;;;4852286;29;20485;-85
2023/07/22 10:56:04;;;;;;;9.32;3.63;;;;;;;;;;4845920;29;20042;-82
2023/07/22 10:58:52;;;;;;;8.70;3.38;;;;;;;;;;4851818;29;20034;-81
2023/07/22 11:01:43;;;;;;;9.02;3.45;;;;;;;;;;4851512;29;20054;-83
2023/07/22 11:04:32;;;;;;;8.50;3.42;;;;;;;;;;4851578;29;20054;-81
2023/07/22 11:07:30;;;;;;;14.25;3.90;;;;;;;;;;4837726;29;20058;-82
2023/07/22 11:10:18;;;;;;;8.70;3.55;;;;;;;;;;4845703;29;20054;-80
2023/07/22 11:13:03;;;;;;;9.68;3.65;;;;;;;;;;4845325;29;20054;-80
2023/07/22 11:15:48;;;;;;;12.95;3.65;;;;;;;;;;4852232;29;20053;-82
2023/07/22 11:18:38;;;;;;;12.60;3.40;;;;;;;;;;4831214;29;20046;-82
2023/07/22 11:21:24;;;;;;;14.38;3.67;;;;;;;;;;4855662;29;20042;-82
2023/07/22 11:24:15;;;;;;;11.30;3.25;;;;;;;;;;4853115;29;20050;-81
2023/07/22 11:27:08;;;;;;;8.98;3.60;;;;;;;;;;4853300;29;20038;-80
2023/07/22 11:29:57;;;;;;;10.85;3.42;;;;;;;;;;4848316;29;20050;-83
2023/07/22 11:32:43;;;;;;;10.57;3.33;;;;;;;;;;4862055;29;20054;-82
2023/07/22 11:35:29;;;;;;;8.88;3.33;;;;;;;;;;4846881;29;20042;-80
2023/07/22 11:38:14;;;;;;;17.70;3.35;;;;;;;;;;4845339;29;20396;-79
2023/07/22 11:41:00;;;;;;;13.73;3.45;;;;;;;;;;4844558;29;20054;-81
2023/07/22 11:43:45;;;;;;;12.00;4.20;;;;;;;;;;4843847;29;20489;-81
2023/07/22 11:46:31;;;;;;;9.38;3.15;;;;;;;;;;4844516;29;20057;-81
2023/07/22 11:49:40;;;;;;;9.50;3.30;;;;;;;;;;4836658;29;20042;-80
2023/07/22 11:52:25;;;;;;;11.35;3.55;;;;;;;;;;4850791;29;20054;-80
2023/07/22 11:55:12;;;;;;;12.82;3.65;;;;;;;;;;4844702;29;20042;-82
2023/07/22 11:57:57;;;;;;;9.60;3.22;;;;;;;;;;4844375;29;20045;-82
2023/07/22 12:00:43;;;;;;;11.15;3.72;;;;;;;;;;4850558;29;20046;-83
2023/07/22 12:03:35;;;;;;;5.82;3.15;;;;;;;;;;4843910;29;20046;-80
2023/07/22 12:06:20;;;;;;;9.55;3.38;;;;;;;;;;4844705;29;20054;-81
2023/07/22 12:09:08;;;;;;;8.25;3.38;;;;;;;;;;4836632;29;20049;-80
2023/07/22 12:12:00;;;;;;;12.05;3.92;;;;;;;;;;4850202;29;20050;-80
2023/07/22 12:14:46;;;;;;;10.50;3.50;;;;;;;;;;4850108;29;20057;-82
2023/07/22 12:17:46;;;;;;;16.38;3.78;;;;;;;;;;4846947;29;20058;-81
2023/07/22 12:20:35;;;;;;;14.75;3.83;;;;;;;;;;4844518;29;20038;-83
2023/07/22 12:23:21;;;;;;;8.02;2.90;;;;;;;;;;4849743;29;20049;-82
2023/07/22 12:26:07;;;;;;;12.80;3.50;;;;;;;;;;4849706;29;20046;-80
2023/07/22 12:28:52;;;;;;;11.50;3.20;;;;;;;;;;4844040;29;20404;-80
2023/07/22 12:31:37;;;;;;;8.48;3.60;;;;;;;;;;4849976;29;20053;-82
2023/07/22 12:34:22;;;;;;;8.85;3.17;;;;;;;;;;4836557;29;20046;-80
2023/07/22 12:37:07;;;;;;;10.23;3.50;;;;;;;;;;4849916;29;20050;-80
2023/07/22 12:39:53;;;;;;;12.27;3.40;;;;;;;;;;4844680;29;20050;-81
2023/07/22 12:42:40;;;;;;;12.23;3.67;;;;;;;;;;4852081;29;20042;-81
2023/07/22 12:45:25;;;;;;;8.27;3.35;;;;;;;;;;4847954;29;20054;-81
2023/07/22 12:48:11;;;;;;;8.45;3.10;;;;;;;;;;4851495;29;20050;-83
2023/07/22 12:50:56;;;;;;;7.10;3.40;;;;;;;;;;4845765;29;20053;-79
2023/07/22 12:53:41;;;;;;;8.40;3.47;;;;;;;;;;4835534;29;20057;-79
2023/07/22 12:56:26;;;;;;;9.80;3.38;;;;;;;;;;4843308;29;20038;-79
2023/07/22 12:59:12;;;;;;;8.35;3.22;;;;;;;;;;4844189;29;20050;-79
2023/07/22 13:01:58;;;;;;;6.85;3.00;;;;;;;;;;4844188;29;20050;-79
2023/07/22 13:04:44;;;;;;;11.40;3.67;;;;;;;;;;4844075;29;20054;-82
2023/07/22 13:07:29;;;;;;;11.48;3.45;;;;;;;;;;4845432;29;20050;-85
2023/07/22 13:10:20;;;;;;;10.63;3.50;;;;;;;;;;4843738;29;20042;-83
2023/07/22 13:13:05;;;;;;;9.70;3.17;;;;;;;;;;4849132;29;20049;-82
2023/07/22 13:15:50;;;;;;;6.00;3.03;;;;;;;;;;4830718;29;20046;-83
2023/07/22 13:18:36;;;;;;;7.85;2.83;;;;;;;;;;4842352;29;20480;-83
2023/07/22 13:21:21;;;;;;;7.53;3.22;;;;;;;;;;4849295;29;20046;-81
2023/07/22 13:24:06;;;;;;;9.40;3.67;;;;;;;;;;4843178;29;20054;-82
2023/07/22 13:26:53;;;;;;;8.15;3.40;;;;;;;;;;4844096;29;20049;-81
2023/07/22 13:29:38;;;;;;;11.27;4.28;;;;;;;;;;4843157;29;20058;-84
2023/07/22 13:32:24;;;;;;;11.32;3.42;;;;;;;;;;4837071;29;20050;-81
2023/07/22 13:35:10;;;;;;;9.38;3.08;;;;;;;;;;4849182;29;20059;-80
2023/07/22 13:37:55;;;;;;;8.32;3.35;;;;;;;;;;4848917;29;20046;-79
2023/07/22 13:40:41;;;;;;;8.23;3.20;;;;;;;;;;4849188;29;20050;-79
2023/07/22 13:43:28;;;;;;;8.70;3.75;;;;;;;;;;4842548;29;20520;-79
2023/07/22 13:46:13;;;;;;;10.23;3.67;;;;;;;;;;4843087;29;20397;-79
2023/07/22 13:49:01;;;;;;;13.07;4.10;;;;;;;;;;4852828;29;20050;-79
2023/07/22 13:51:46;;;;;;;13.80;3.88;;;;;;;;;;4846238;29;20412;-80
2023/07/22 13:54:32;;;;;;;7.25;4.05;;;;;;;;;;4842976;29;20058;-79
2023/07/22 13:57:18;;;;;;;8.68;4.03;;;;;;;;;;4842920;29;20054;-77
2023/07/22 14:00:08;;;;;;;8.93;3.53;;;;;;;;;;4849441;29;20046;-78
2023/07/22 14:02:57;;;;;;;9.60;3.78;;;;;;;;;;4842526;29;20042;-78
2023/07/22 14:05:42;;;;;;;9.68;3.95;;;;;;;;;;4849972;29;20054;-77
2023/07/22 14:08:27;;;;;;;9.30;4.28;;;;;;;;;;4845751;29;20408;-78
2023/07/22 14:11:14;;;;;;;11.95;4.13;;;;;;;;;;4853414;29;20057;-79
2023/07/22 14:14:00;;;;;;;11.85;3.55;;;;;;;;;;4846723;29;20504;-78
2023/07/22 14:16:45;;;;;;;10.45;3.60;;;;;;;;;;4846368;29;20042;-81
2023/07/22 14:19:32;;;;;;;9.02;3.80;;;;;;;;;;4846312;29;20050;-79
2023/07/22 14:22:17;;;;;;;7.55;3.90;;;;;;;;;;4846586;29;20053;-80
2023/07/22 14:25:04;;;;;;;10.88;4.00;;;;;;;;;;4851926;29;20049;-80
2023/07/22 14:27:49;;;;;;;15.18;3.92;;;;;;;;;;4852584;29;20058;-85
2023/07/22 14:30:38;;;;;;;9.98;3.85;;;;;;;;;;4846929;29;20500;-84
2023/07/22 14:33:24;;;;;;;10.15;3.80;;;;;;;;;;4845911;29;20057;-85
2023/07/22 14:36:11;;;;;;;8.98;3.85;;;;;;;;;;4851356;29;20050;-79
2023/07/22 14:38:58;;;;;;;7.82;3.90;;;;;;;;;;4845762;29;20042;-79
2023/07/22 14:41:44;;;;;;;7.35;3.70;;;;;;;;;;4851044;29;20046;-80
2023/07/22 14:44:29;;;;;;;8.40;3.83;;;;;;;;;;4851850;29;20054;-80
2023/07/22 14:47:15;;;;;;;6.80;4.40;;;;;;;;;;4851770;29;20400;-82
2023/07/22 14:50:01;;;;;;;7.15;4.43;;;;;;;;;;4851667;29;20046;-78
2023/07/22 14:52:46;;;;;;;9.90;4.00;;;;;;;;;;4845748;29;20053;-81
2023/07/22 14:55:32;;;;;;;11.35;4.57;;;;;;;;;;4844383;29;20061;-82
2023/07/22 14:58:18;;;;;;;7.50;4.60;;;;;;;;;;4851696;29;20054;-82
2023/07/22 15:01:04;;;;;;;14.63;4.57;;;;;;;;;;4851426;29;20042;-78
2023/07/22 15:03:50;;;;;;;11.88;3.55;;;;;;;;;;4845206;29;20489;-78
2023/07/22 15:06:36;;;;;;;11.00;3.17;;;;;;;;;;4851693;29;20388;-79
2023/07/22 15:09:21;;;;;;;9.65;3.08;;;;;;;;;;4851894;29;20049;-78
2023/07/22 15:12:07;;;;;;;10.18;3.42;;;;;;;;;;4844954;29;20049;-78
2023/07/22 15:14:53;;;;;;;9.52;3.88;;;;;;;;;;4851773;29;20050;-79
2023/07/22 15:17:40;;;;;;;12.43;4.15;;;;;;;;;;4846571;29;20050;-79
2023/07/22 15:20:26;;;;;;;13.68;4.28;;;;;;;;;;4844841;29;20042;-78
2023/07/22 15:23:12;;;;;;;14.63;5.10;;;;;;;;;;4851313;29;20455;-79
2023/07/22 15:25:58;;;;;;;10.73;4.97;;;;;;;;;;4851781;29;20045;-80
2023/07/22 15:28:42;;;;;;;15.52;5.63;;;;;;;;;;4851173;29;20054;-81
2023/07/22 15:31:28;;;;;;;18.02;6.63;;;;;;;;;;4844749;29;20050;-78
2023/07/22 15:34:14;;;;;;;11.75;5.88;;;;;;;;;;4844572;29;20046;-80
2023/07/22 15:36:59;;;;;;;16.52;6.43;;;;;;;;;;4844498;29;20042;-81
2023/07/22 15:39:45;;;;;;;15.93;6.70;;;;;;;;;;4844755;29;20037;-82
2023/07/22 15:42:30;;;;;;;18.58;6.57;;;;;;;;;;4844894;29;20485;-82
2023/07/22 15:45:15;;;;;;;14.70;5.53;;;;;;;;;;4851058;29;20054;-81
2023/07/22 15:48:02;;;;;;;17.17;5.38;;;;;;;;;;4844734;29;20046;-78
2023/07/22 15:50:48;;;;;;;19.65;5.70;;;;;;;;;;4850530;29;20054;-81
2023/07/22 15:53:34;;;;;;;12.95;5.10;;;;;;;;;;4850695;29;20049;-81
2023/07/22 15:56:21;;;;;;;18.83;6.10;;;;;;;;;;4844106;29;20049;-81
2023/07/22 15:59:07;;;;;;;21.38;4.90;;;;;;;;;;4850574;29;20054;-81
2023/07/22 16:01:53;;;;;;;15.85;5.38;;;;;;;;;;4844043;29;20049;-78
2023/07/22 16:04:39;;;;;;;17.27;5.22;;;;;;;;;;4852596;29;20049;-81
2023/07/22 16:07:25;;;;;;;15.80;5.88;;;;;;;;;;4856430;29;20042;-81
2023/07/22 16:10:10;;;;;;;15.48;5.68;;;;;;;;;;4849045;29;20050;-81
2023/07/22 16:12:57;;;;;;;12.90;5.00;;;;;;;;;;4851661;29;20045;-81
2023/07/22 16:15:42;;;;;;;13.57;4.57;;;;;;;;;;4841263;29;20050;-80
2023/07/22 16:18:28;;;;;;;16.80;5.65;;;;;;;;;;4843372;29;20497;-80
2023/07/22 16:21:13;;;;;;;16.38;5.05;;;;;;;;;;4835932;29;20054;-80
2023/07/22 16:23:58;;;;;;;15.27;5.65;;;;;;;;;;4849667;29;20046;-79
2023/07/22 16:26:44;;;;;;;14.43;5.57;;;;;;;;;;4849876;29;20046;-79
2023/07/22 16:29:29;;;;;;;14.60;5.13;;;;;;;;;;4849929;29;20050;-79
2023/07/22 16:32:15;;;;;;;20.58;5.03;;;;;;;;;;4849743;29;20053;-78
2023/07/22 16:35:03;;;;;;;9.35;4.38;;;;;;;;;;4849729;29;20050;-77
2023/07/22 16:37:48;;;;;;;14.77;6.82;;;;;;;;;;4849697;29;20049;-78
2023/07/22 16:40:33;;;;;;;14.02;5.40;;;;;;;;;;4849849;29;20053;-78
2023/07/22 16:43:19;;;;;;;14.77;4.38;;;;;;;;;;4849583;29;20042;-78
2023/07/22 16:46:06;;;;;;;14.55;4.57;;;;;;;;;;4849763;29;20041;-79
2023/07/22 16:48:53;;;;;;;15.43;4.60;;;;;;;;;;4843837;29;20061;-77
2023/07/22 16:51:40;;;;;;;12.55;4.80;;;;;;;;;;4849658;29;20397;-77
2023/07/22 16:54:27;;;;;;;13.25;4.75;;;;;;;;;;4843591;29;20049;-77
2023/07/22 16:57:12;;;;;;;11.35;4.00;;;;;;;;;;4843395;29;20046;-78
2023/07/22 16:59:59;;;;;;;21.30;5.10;;;;;;;;;;4849591;29;20042;-79
2023/07/22 17:02:45;;;;;;;14.68;4.43;;;;;;;;;;4849307;29;20042;-79
2023/07/22 17:05:31;;;;;;;14.13;4.18;;;;;;;;;;4849211;29;20053;-78
2023/07/22 17:08:18;;;;;;;14.60;4.53;;;;;;;;;;4849666;29;20046;-79
2023/07/22 17:11:03;;;;;;;16.75;5.05;;;;;;;;;;4850283;29;20053;-77
2023/07/22 17:13:50;;;;;;;15.27;5.35;;;;;;;;;;4849907;29;20071;-78
2023/07/22 17:16:36;;;;;;;10.05;4.70;;;;;;;;;;4842534;29;20050;-79
2023/07/22 17:19:22;;;;;;;16.27;5.47;;;;;;;;;;4849315;29;20405;-79
2023/07/22 17:22:07;;;;;;;18.65;5.38;;;;;;;;;;4843038;29;20049;-78
2023/07/22 17:24:53;;;;;;;14.32;5.45;;;;;;;;;;4842551;29;20053;-77
2023/07/22 17:27:38;;;;;;;16.92;6.05;;;;;;;;;;4848412;29;20042;-75
2023/07/22 17:30:24;;;;;;;19.85;6.38;;;;;;;;;;4849610;29;20058;-74
2023/07/22 17:33:10;;;;;;;18.58;7.20;;;;;;;;;;4848833;29;20046;-76
2023/07/22 17:35:55;;;;;;;21.65;8.23;;;;;;;;;;4849300;29;20393;-79
2023/07/22 17:38:42;;;;;;;24.15;8.02;;;;;;;;;;4848837;29;20054;-79
2023/07/22 17:41:28;;;;;;;21.00;8.88;;;;;;;;;;4850931;29;20046;-77
2023/07/22 17:44:13;;;;;;;19.17;9.02;;;;;;;;;;4846347;29;20058;-78
2023/07/22 17:46:59;;;;;;;27.50;11.82;;;;;;;;;;4846946;29;20046;-79
2023/07/22 17:49:45;;;;;;;17.42;9.75;;;;;;;;;;4853085;29;20400;-78
2023/07/22 17:52:31;;;;;;;25.05;9.73;;;;;;;;;;4852816;29;20046;-76
2023/07/22 17:55:17;;;;;;;22.48;9.43;;;;;;;;;;4853288;29;20481;-77
2023/07/22 17:58:03;;;;;;;20.95;9.20;;;;;;;;;;4853359;29;20042;-76
2023/07/22 18:00:49;;;;;;;23.50;8.88;;;;;;;;;;4846159;29;20041;-76
2023/07/22 18:03:36;;;;;;;20.60;9.30;;;;;;;;;;4852122;29;20054;-77
2023/07/22 18:06:22;;;;;;;22.33;11.10;;;;;;;;;;4832886;29;20050;-76
2023/07/22 18:09:07;;;;;;;22.67;10.00;;;;;;;;;;4846069;29;20050;-76
2023/07/22 18:11:53;;;;;;;25.35;9.60;;;;;;;;;;4846231;29;20054;-76
2023/07/22 18:14:39;;;;;;;18.90;9.05;;;;;;;;;;4846073;29;20420;-76
2023/07/22 18:17:25;;;;;;;29.83;12.55;;;;;;;;;;4848800;29;20053;-78
2023/07/22 18:20:11;;;;;;;27.65;12.55;;;;;;;;;;4853211;29;20496;-79
2023/07/22 18:22:58;;;;;;;40.42;16.88;;;;;;;;;;4838291;29;20046;-77
2023/07/22 18:25:44;;;;;;;38.55;14.00;;;;;;;;;;4852337;29;20050;-76